sensor_id;sensor_type;location;lat;lon;timestamp;P1;durP1;ratioP1;P2;durP2;ratioP2
1765;SDS011;880;52.452;8.656;2022-10-17T00:00:54;7.00;;;6.33;;
1765;SDS011;880;52.452;8.656;2022-10-17T00:03:21;6.93;;;6.33;;
1765;SDS011;880;52.452;8.656;2022-10-17T00:05:48;6.83;;;6.33;;
1765;SDS011;880;52.452;8.656;2022-10-17T00:08:16;7.10;;;6.47;;
1765;SDS011;880;52.452;8.656;2022-10-17T00:10:44;6.57;;;6.17;;
1765;SDS011;880;52.452;8.656;2022-10-17T00:13:11;6.80;;;6.30;;
1765;SDS011;880;52.452;8.656;2022-10-17T00:15:41;6.20;;;5.80;;
1765;SDS011;880;52.452;8.656;2022-10-17T00:18:10;7.40;;;6.83;;
1765;SDS011;880;52.452;8.656;2022-10-17T00:20:37;6.80;;;6.40;;
1765;SDS011;880;52.452;8.656;2022-10-17T00:23:04;6.30;;;5.90;;
1765;SDS011;880;52.452;8.656;2022-10-17T00:25:31;6.67;;;6.07;;
1765;SDS011;880;52.452;8.656;2022-10-17T00:27:58;6.50;;;6.00;;
1765;SDS011;880;52.452;8.656;2022-10-17T00:30:25;6.47;;;6.07;;
1765;SDS011;880;52.452;8.656;2022-10-17T00:32:52;8.53;;;6.57;;
1765;SDS011;880;52.452;8.656;2022-10-17T00:35:19;6.07;;;5.67;;
1765;SDS011;880;52.452;8.656;2022-10-17T00:37:47;5.40;;;5.10;;
1765;SDS011;880;52.452;8.656;2022-10-17T00:40:15;5.73;;;5.37;;
1765;SDS011;880;52.452;8.656;2022-10-17T00:42:45;5.50;;;5.10;;
1765;SDS011;880;52.452;8.656;2022-10-17T00:47:54;6.90;;;6.20;;
1765;SDS011;880;52.452;8.656;2022-10-17T00:50:33;5.90;;;5.33;;
1765;SDS011;880;52.452;8.656;2022-10-17T00:53:04;6.30;;;5.90;;
1765;SDS011;880;52.452;8.656;2022-10-17T00:55:34;6.40;;;5.80;;
1765;SDS011;880;52.452;8.656;2022-10-17T00:58:09;6.43;;;5.93;;
1765;SDS011;880;52.452;8.656;2022-10-17T01:00:37;6.70;;;6.10;;
1765;SDS011;880;52.452;8.656;2022-10-17T01:03:04;6.83;;;6.13;;
1765;SDS011;880;52.452;8.656;2022-10-17T01:05:31;5.87;;;5.37;;
1765;SDS011;880;52.452;8.656;2022-10-17T01:07:58;6.37;;;5.87;;
1765;SDS011;880;52.452;8.656;2022-10-17T01:10:28;6.40;;;5.77;;
1765;SDS011;880;52.452;8.656;2022-10-17T01:13:07;7.00;;;5.57;;
1765;SDS011;880;52.452;8.656;2022-10-17T01:27:59;5.77;;;5.37;;
1765;SDS011;880;52.452;8.656;2022-10-17T01:31:02;6.27;;;5.87;;
1765;SDS011;880;52.452;8.656;2022-10-17T01:40:06;5.10;;;4.80;;
1765;SDS011;880;52.452;8.656;2022-10-17T01:45:32;6.90;;;6.33;;
1765;SDS011;880;52.452;8.656;2022-10-17T01:48:08;7.07;;;6.47;;
1765;SDS011;880;52.452;8.656;2022-10-17T01:50:47;7.63;;;6.97;;
1765;SDS011;880;52.452;8.656;2022-10-17T01:53:32;6.50;;;6.10;;
1765;SDS011;880;52.452;8.656;2022-10-17T01:56:05;7.20;;;6.60;;
1765;SDS011;880;52.452;8.656;2022-10-17T01:58:46;6.83;;;6.20;;
1765;SDS011;880;52.452;8.656;2022-10-17T02:01:19;7.77;;;7.07;;
1765;SDS011;880;52.452;8.656;2022-10-17T02:03:48;7.90;;;7.10;;
1765;SDS011;880;52.452;8.656;2022-10-17T02:06:17;6.87;;;6.33;;
1765;SDS011;880;52.452;8.656;2022-10-17T02:08:45;7.20;;;6.70;;
1765;SDS011;880;52.452;8.656;2022-10-17T02:11:21;7.40;;;6.90;;
1765;SDS011;880;52.452;8.656;2022-10-17T02:13:55;7.43;;;6.93;;
1765;SDS011;880;52.452;8.656;2022-10-17T02:28:00;7.10;;;6.40;;
1765;SDS011;880;52.452;8.656;2022-10-17T02:30:46;7.17;;;6.60;;
1765;SDS011;880;52.452;8.656;2022-10-17T02:33:30;8.07;;;7.37;;
1765;SDS011;880;52.452;8.656;2022-10-17T02:36:06;8.37;;;7.77;;
1765;SDS011;880;52.452;8.656;2022-10-17T02:38:37;8.17;;;7.57;;
1765;SDS011;880;52.452;8.656;2022-10-17T02:41:06;9.07;;;8.23;;
1765;SDS011;880;52.452;8.656;2022-10-17T02:43:37;8.83;;;8.13;;
1765;SDS011;880;52.452;8.656;2022-10-17T02:46:04;8.60;;;7.90;;
1765;SDS011;880;52.452;8.656;2022-10-17T02:48:34;9.27;;;8.40;;
1765;SDS011;880;52.452;8.656;2022-10-17T02:51:23;8.27;;;7.57;;
1765;SDS011;880;52.452;8.656;2022-10-17T02:54:17;8.13;;;7.47;;
1765;SDS011;880;52.452;8.656;2022-10-17T02:56:54;8.30;;;7.60;;
1765;SDS011;880;52.452;8.656;2022-10-17T02:59:27;8.70;;;8.00;;
1765;SDS011;880;52.452;8.656;2022-10-17T03:02:06;9.17;;;8.47;;
1765;SDS011;880;52.452;8.656;2022-10-17T03:04:33;9.37;;;8.43;;
1765;SDS011;880;52.452;8.656;2022-10-17T03:07:00;8.77;;;7.87;;
1765;SDS011;880;52.452;8.656;2022-10-17T03:09:27;9.23;;;8.53;;
1765;SDS011;880;52.452;8.656;2022-10-17T03:11:54;8.70;;;8.00;;
1765;SDS011;880;52.452;8.656;2022-10-17T03:14:21;10.30;;;9.30;;
1765;SDS011;880;52.452;8.656;2022-10-17T03:16:48;9.13;;;8.13;;
1765;SDS011;880;52.452;8.656;2022-10-17T03:19:16;9.37;;;8.67;;
1765;SDS011;880;52.452;8.656;2022-10-17T03:21:43;9.97;;;9.07;;
1765;SDS011;880;52.452;8.656;2022-10-17T03:24:10;11.50;;;9.13;;
1765;SDS011;880;52.452;8.656;2022-10-17T03:26:37;9.00;;;8.30;;
1765;SDS011;880;52.452;8.656;2022-10-17T03:29:06;10.00;;;9.10;;
1765;SDS011;880;52.452;8.656;2022-10-17T03:31:34;10.20;;;9.30;;
1765;SDS011;880;52.452;8.656;2022-10-17T03:34:04;9.67;;;8.87;;
1765;SDS011;880;52.452;8.656;2022-10-17T03:36:30;9.23;;;8.33;;
1765;SDS011;880;52.452;8.656;2022-10-17T03:38:59;9.07;;;8.27;;
1765;SDS011;880;52.452;8.656;2022-10-17T03:41:26;9.23;;;8.43;;
1765;SDS011;880;52.452;8.656;2022-10-17T03:43:53;9.00;;;8.30;;
1765;SDS011;880;52.452;8.656;2022-10-17T03:46:21;9.70;;;8.90;;
1765;SDS011;880;52.452;8.656;2022-10-17T03:48:49;9.77;;;8.87;;
1765;SDS011;880;52.452;8.656;2022-10-17T03:51:16;9.23;;;8.43;;
1765;SDS011;880;52.452;8.656;2022-10-17T03:53:48;8.90;;;8.30;;
1765;SDS011;880;52.452;8.656;2022-10-17T03:56:16;10.00;;;9.10;;
1765;SDS011;880;52.452;8.656;2022-10-17T03:58:55;9.20;;;8.27;;
1765;SDS011;880;52.452;8.656;2022-10-17T04:01:22;9.87;;;8.97;;
1765;SDS011;880;52.452;8.656;2022-10-17T04:03:50;11.45;;;10.45;;
1765;SDS011;880;52.452;8.656;2022-10-17T04:06:20;10.67;;;9.67;;
1765;SDS011;880;52.452;8.656;2022-10-17T04:08:48;10.33;;;8.63;;
1765;SDS011;880;52.452;8.656;2022-10-17T04:11:34;9.57;;;8.77;;
1765;SDS011;880;52.452;8.656;2022-10-17T04:14:02;10.00;;;9.10;;
1765;SDS011;880;52.452;8.656;2022-10-17T04:16:29;9.23;;;8.53;;
1765;SDS011;880;52.452;8.656;2022-10-17T04:19:00;10.13;;;9.13;;
1765;SDS011;880;52.452;8.656;2022-10-17T04:21:33;9.90;;;9.00;;
1765;SDS011;880;52.452;8.656;2022-10-17T04:24:04;9.90;;;9.00;;
1765;SDS011;880;52.452;8.656;2022-10-17T04:27:09;9.43;;;8.53;;
1765;SDS011;880;52.452;8.656;2022-10-17T04:29:41;9.63;;;8.80;;
1765;SDS011;880;52.452;8.656;2022-10-17T04:32:21;9.20;;;8.40;;
1765;SDS011;880;52.452;8.656;2022-10-17T04:34:55;10.10;;;9.20;;
1765;SDS011;880;52.452;8.656;2022-10-17T04:37:27;11.10;;;9.20;;
1765;SDS011;880;52.452;8.656;2022-10-17T04:39:55;9.17;;;8.37;;
1765;SDS011;880;52.452;8.656;2022-10-17T04:42:23;11.05;;;10.05;;
1765;SDS011;880;52.452;8.656;2022-10-17T04:44:53;10.40;;;9.40;;
1765;SDS011;880;52.452;8.656;2022-10-17T04:47:22;12.00;;;9.70;;
1765;SDS011;880;52.452;8.656;2022-10-17T04:49:49;11.53;;;9.93;;
1765;SDS011;880;52.452;8.656;2022-10-17T04:52:17;9.47;;;8.67;;
1765;SDS011;880;52.452;8.656;2022-10-17T04:54:47;8.67;;;7.87;;
1765;SDS011;880;52.452;8.656;2022-10-17T04:57:15;9.90;;;8.23;;
1765;SDS011;880;52.452;8.656;2022-10-17T04:59:52;8.60;;;7.90;;
1765;SDS011;880;52.452;8.656;2022-10-17T05:02:24;8.90;;;8.20;;
1765;SDS011;880;52.452;8.656;2022-10-17T05:04:51;9.13;;;8.43;;
1765;SDS011;880;52.452;8.656;2022-10-17T05:07:19;8.10;;;7.40;;
1765;SDS011;880;52.452;8.656;2022-10-17T05:10:01;9.33;;;8.30;;
1765;SDS011;880;52.452;8.656;2022-10-17T05:12:30;9.67;;;8.87;;
1765;SDS011;880;52.452;8.656;2022-10-17T05:14:57;9.90;;;9.10;;
1765;SDS011;880;52.452;8.656;2022-10-17T05:17:26;9.47;;;8.53;;
1765;SDS011;880;52.452;8.656;2022-10-17T05:19:53;9.47;;;8.67;;
1765;SDS011;880;52.452;8.656;2022-10-17T05:22:21;9.60;;;8.70;;
1765;SDS011;880;52.452;8.656;2022-10-17T05:24:48;9.30;;;8.50;;
1765;SDS011;880;52.452;8.656;2022-10-17T05:27:15;9.83;;;8.83;;
1765;SDS011;880;52.452;8.656;2022-10-17T05:29:42;8.80;;;8.10;;
1765;SDS011;880;52.452;8.656;2022-10-17T05:32:22;8.57;;;7.87;;
1765;SDS011;880;52.452;8.656;2022-10-17T05:34:49;8.67;;;7.90;;
1765;SDS011;880;52.452;8.656;2022-10-17T05:37:16;9.07;;;8.17;;
1765;SDS011;880;52.452;8.656;2022-10-17T05:39:48;12.45;;;9.90;;
1765;SDS011;880;52.452;8.656;2022-10-17T05:42:18;9.53;;;8.73;;
1765;SDS011;880;52.452;8.656;2022-10-17T05:44:45;8.90;;;8.07;;
1765;SDS011;880;52.452;8.656;2022-10-17T05:47:14;8.53;;;7.93;;
1765;SDS011;880;52.452;8.656;2022-10-17T05:49:42;9.40;;;8.50;;
1765;SDS011;880;52.452;8.656;2022-10-17T05:52:20;8.93;;;8.13;;
1765;SDS011;880;52.452;8.656;2022-10-17T05:54:58;8.67;;;7.87;;
1765;SDS011;880;52.452;8.656;2022-10-17T05:57:25;9.77;;;8.87;;
1765;SDS011;880;52.452;8.656;2022-10-17T05:59:53;10.17;;;8.17;;
1765;SDS011;880;52.452;8.656;2022-10-17T06:02:21;9.45;;;8.63;;
1765;SDS011;880;52.452;8.656;2022-10-17T06:04:48;11.02;;;10.13;;
1765;SDS011;880;52.452;8.656;2022-10-17T06:07:17;9.87;;;9.03;;
1765;SDS011;880;52.452;8.656;2022-10-17T06:09:47;11.80;;;10.80;;
1765;SDS011;880;52.452;8.656;2022-10-17T06:12:14;10.50;;;9.60;;
1765;SDS011;880;52.452;8.656;2022-10-17T06:14:42;9.40;;;8.50;;
1765;SDS011;880;52.452;8.656;2022-10-17T06:17:10;9.60;;;8.80;;
1765;SDS011;880;52.452;8.656;2022-10-17T06:19:42;9.47;;;8.57;;
1765;SDS011;880;52.452;8.656;2022-10-17T06:22:12;9.87;;;8.83;;
1765;SDS011;880;52.452;8.656;2022-10-17T06:24:40;9.03;;;8.23;;
1765;SDS011;880;52.452;8.656;2022-10-17T06:27:07;10.00;;;9.10;;
1765;SDS011;880;52.452;8.656;2022-10-17T06:29:39;10.60;;;9.60;;
1765;SDS011;880;52.452;8.656;2022-10-17T06:32:09;11.07;;;10.07;;
1765;SDS011;880;52.452;8.656;2022-10-17T06:34:43;12.63;;;11.63;;
1765;SDS011;880;52.452;8.656;2022-10-17T06:37:10;12.00;;;11.00;;
1765;SDS011;880;52.452;8.656;2022-10-17T06:39:39;10.85;;;9.85;;
1765;SDS011;880;52.452;8.656;2022-10-17T06:42:10;10.93;;;9.93;;
1765;SDS011;880;52.452;8.656;2022-10-17T06:44:45;10.40;;;9.40;;
1765;SDS011;880;52.452;8.656;2022-10-17T06:47:32;10.00;;;9.20;;
1765;SDS011;880;52.452;8.656;2022-10-17T06:50:08;9.40;;;8.50;;
1765;SDS011;880;52.452;8.656;2022-10-17T06:52:42;11.43;;;10.30;;
1765;SDS011;880;52.452;8.656;2022-10-17T06:55:29;10.50;;;8.70;;
1765;SDS011;880;52.452;8.656;2022-10-17T06:58:12;11.50;;;10.13;;
1765;SDS011;880;52.452;8.656;2022-10-17T07:00:43;10.80;;;9.70;;
1765;SDS011;880;52.452;8.656;2022-10-17T07:03:11;11.40;;;10.35;;
1765;SDS011;880;52.452;8.656;2022-10-17T07:05:38;11.10;;;10.10;;
1765;SDS011;880;52.452;8.656;2022-10-17T07:08:05;10.60;;;9.60;;
1765;SDS011;880;52.452;8.656;2022-10-17T07:10:36;10.10;;;9.23;;
1765;SDS011;880;52.452;8.656;2022-10-17T07:13:05;11.17;;;10.10;;
1765;SDS011;880;52.452;8.656;2022-10-17T07:15:34;10.70;;;9.60;;
1765;SDS011;880;52.452;8.656;2022-10-17T07:18:02;10.70;;;9.80;;
1765;SDS011;880;52.452;8.656;2022-10-17T07:20:30;10.63;;;9.53;;
1765;SDS011;880;52.452;8.656;2022-10-17T07:22:57;15.23;;;9.93;;
1765;SDS011;880;52.452;8.656;2022-10-17T07:25:25;10.40;;;9.43;;
1765;SDS011;880;52.452;8.656;2022-10-17T07:27:57;9.87;;;8.97;;
1765;SDS011;880;52.452;8.656;2022-10-17T07:30:25;9.13;;;8.23;;
1765;SDS011;880;52.452;8.656;2022-10-17T07:32:58;9.30;;;8.50;;
1765;SDS011;880;52.452;8.656;2022-10-17T07:35:27;9.40;;;8.60;;
1765;SDS011;880;52.452;8.656;2022-10-17T07:37:54;9.37;;;8.47;;
1765;SDS011;880;52.452;8.656;2022-10-17T07:40:21;12.37;;;8.00;;
1765;SDS011;880;52.452;8.656;2022-10-17T07:42:48;7.97;;;7.27;;
1765;SDS011;880;52.452;8.656;2022-10-17T07:45:15;7.40;;;6.87;;
1765;SDS011;880;52.452;8.656;2022-10-17T07:47:43;12.03;;;7.80;;
1765;SDS011;880;52.452;8.656;2022-10-17T07:50:13;8.60;;;7.77;;
1765;SDS011;880;52.452;8.656;2022-10-17T07:52:40;6.83;;;6.23;;
1765;SDS011;880;52.452;8.656;2022-10-17T07:55:08;7.77;;;7.03;;
1765;SDS011;880;52.452;8.656;2022-10-17T07:57:35;6.97;;;6.37;;
1765;SDS011;880;52.452;8.656;2022-10-17T08:00:02;8.00;;;7.33;;
1765;SDS011;880;52.452;8.656;2022-10-17T08:02:37;7.10;;;6.50;;
1765;SDS011;880;52.452;8.656;2022-10-17T08:05:05;7.03;;;6.43;;
1765;SDS011;880;52.452;8.656;2022-10-17T08:07:32;6.88;;;6.30;;
1765;SDS011;880;52.452;8.656;2022-10-17T08:09:59;6.80;;;6.20;;
1765;SDS011;880;52.452;8.656;2022-10-17T08:12:32;6.97;;;6.40;;
1765;SDS011;880;52.452;8.656;2022-10-17T08:14:59;9.67;;;5.87;;
1765;SDS011;880;52.452;8.656;2022-10-17T08:17:27;6.37;;;5.77;;
1765;SDS011;880;52.452;8.656;2022-10-17T08:19:54;7.63;;;5.87;;
1765;SDS011;880;52.452;8.656;2022-10-17T08:22:21;6.00;;;5.60;;
1765;SDS011;880;52.452;8.656;2022-10-17T08:24:49;6.53;;;6.03;;
1765;SDS011;880;52.452;8.656;2022-10-17T08:27:16;6.40;;;5.80;;
1765;SDS011;880;52.452;8.656;2022-10-17T08:29:52;5.73;;;5.03;;
1765;SDS011;880;52.452;8.656;2022-10-17T08:32:20;7.90;;;6.20;;
1765;SDS011;880;52.452;8.656;2022-10-17T08:34:53;6.07;;;5.33;;
1765;SDS011;880;52.452;8.656;2022-10-17T08:37:21;6.40;;;5.90;;
1765;SDS011;880;52.452;8.656;2022-10-17T08:39:48;6.65;;;6.05;;
1765;SDS011;880;52.452;8.656;2022-10-17T08:45:29;6.27;;;5.87;;
1765;SDS011;880;52.452;8.656;2022-10-17T08:48:03;5.70;;;5.30;;
1765;SDS011;880;52.452;8.656;2022-10-17T08:50:55;5.17;;;4.87;;
1765;SDS011;880;52.452;8.656;2022-10-17T08:56:15;11.50;;;5.53;;
1765;SDS011;880;52.452;8.656;2022-10-17T08:59:13;6.73;;;5.40;;
1765;SDS011;880;52.452;8.656;2022-10-17T09:01:57;6.40;;;5.80;;
1765;SDS011;880;52.452;8.656;2022-10-17T09:10:17;5.90;;;5.40;;
1765;SDS011;880;52.452;8.656;2022-10-17T09:16:18;5.50;;;5.00;;
1765;SDS011;880;52.452;8.656;2022-10-17T09:19:16;4.63;;;4.33;;
1765;SDS011;880;52.452;8.656;2022-10-17T09:21:57;5.70;;;5.20;;
1765;SDS011;880;52.452;8.656;2022-10-17T09:24:38;5.00;;;4.50;;
1765;SDS011;880;52.452;8.656;2022-10-17T09:30:48;6.33;;;5.70;;
1765;SDS011;880;52.452;8.656;2022-10-17T09:33:37;6.30;;;4.80;;
1765;SDS011;880;52.452;8.656;2022-10-17T09:36:32;7.25;;;5.20;;
1765;SDS011;880;52.452;8.656;2022-10-17T09:39:03;6.27;;;4.97;;
1765;SDS011;880;52.452;8.656;2022-10-17T09:41:48;5.70;;;5.20;;
1765;SDS011;880;52.452;8.656;2022-10-17T09:49:44;5.13;;;4.63;;
1765;SDS011;880;52.452;8.656;2022-10-17T10:00:24;5.63;;;5.13;;
1765;SDS011;880;52.452;8.656;2022-10-17T10:06:18;4.63;;;4.23;;
1765;SDS011;880;52.452;8.656;2022-10-17T10:08:49;5.30;;;4.90;;
1765;SDS011;880;52.452;8.656;2022-10-17T10:14:21;5.40;;;4.57;;
1765;SDS011;880;52.452;8.656;2022-10-17T10:16:59;4.47;;;4.07;;
1765;SDS011;880;52.452;8.656;2022-10-17T10:19:32;5.03;;;4.60;;
1765;SDS011;880;52.452;8.656;2022-10-17T10:22:03;4.50;;;4.20;;
1765;SDS011;880;52.452;8.656;2022-10-17T10:25:24;4.80;;;4.50;;
1765;SDS011;880;52.452;8.656;2022-10-17T10:27:45;4.77;;;4.37;;
1765;SDS011;880;52.452;8.656;2022-10-17T10:30:16;4.50;;;4.10;;
1765;SDS011;880;52.452;8.656;2022-10-17T10:32:54;4.30;;;3.90;;
1765;SDS011;880;52.452;8.656;2022-10-17T10:35:33;6.07;;;4.40;;
1765;SDS011;880;52.452;8.656;2022-10-17T10:38:06;4.20;;;3.60;;
1765;SDS011;880;52.452;8.656;2022-10-17T10:40:43;5.23;;;4.37;;
1765;SDS011;880;52.452;8.656;2022-10-17T10:43:53;7.73;;;4.37;;
1765;SDS011;880;52.452;8.656;2022-10-17T10:46:22;4.80;;;4.40;;
1765;SDS011;880;52.452;8.656;2022-10-17T10:48:57;5.23;;;4.67;;
1765;SDS011;880;52.452;8.656;2022-10-17T10:51:31;5.23;;;4.13;;
1765;SDS011;880;52.452;8.656;2022-10-17T10:54:21;5.17;;;4.67;;
1765;SDS011;880;52.452;8.656;2022-10-17T10:56:59;4.60;;;4.30;;
1765;SDS011;880;52.452;8.656;2022-10-17T10:59:36;5.67;;;4.43;;
1765;SDS011;880;52.452;8.656;2022-10-17T11:02:23;4.40;;;4.03;;
1765;SDS011;880;52.452;8.656;2022-10-17T11:05:01;5.40;;;5.00;;
1765;SDS011;880;52.452;8.656;2022-10-17T11:07:30;5.03;;;4.60;;
1765;SDS011;880;52.452;8.656;2022-10-17T11:13:12;9.00;;;4.60;;
1765;SDS011;880;52.452;8.656;2022-10-17T11:15:53;5.87;;;4.30;;
1765;SDS011;880;52.452;8.656;2022-10-17T11:18:44;4.67;;;4.37;;
1765;SDS011;880;52.452;8.656;2022-10-17T11:24:20;11.67;;;5.03;;
1765;SDS011;880;52.452;8.656;2022-10-17T11:26:59;8.57;;;5.57;;
1765;SDS011;880;52.452;8.656;2022-10-17T11:29:40;7.80;;;5.40;;
1765;SDS011;880;52.452;8.656;2022-10-17T11:32:15;8.18;;;5.72;;
1765;SDS011;880;52.452;8.656;2022-10-17T11:34:53;6.40;;;5.47;;
1765;SDS011;880;52.452;8.656;2022-10-17T11:37:37;6.00;;;5.40;;
1765;SDS011;880;52.452;8.656;2022-10-17T11:43:01;10.17;;;9.23;;
1765;SDS011;880;52.452;8.656;2022-10-17T11:45:55;7.50;;;6.20;;
1765;SDS011;880;52.452;8.656;2022-10-17T11:49:06;6.10;;;5.50;;
1765;SDS011;880;52.452;8.656;2022-10-17T11:51:53;5.97;;;5.40;;
1765;SDS011;880;52.452;8.656;2022-10-17T11:54:34;6.63;;;6.03;;
1765;SDS011;880;52.452;8.656;2022-10-17T11:57:31;7.43;;;6.83;;
1765;SDS011;880;52.452;8.656;2022-10-17T12:03:47;9.07;;;6.60;;
1765;SDS011;880;52.452;8.656;2022-10-17T12:09:34;8.90;;;8.13;;
1765;SDS011;880;52.452;8.656;2022-10-17T12:12:22;10.50;;;8.17;;
1765;SDS011;880;52.452;8.656;2022-10-17T12:17:58;9.33;;;7.60;;
1765;SDS011;880;52.452;8.656;2022-10-17T12:26:24;9.50;;;8.63;;
1765;SDS011;880;52.452;8.656;2022-10-17T12:31:09;9.68;;;8.50;;
1765;SDS011;880;52.452;8.656;2022-10-17T12:33:48;9.53;;;8.63;;
1765;SDS011;880;52.452;8.656;2022-10-17T12:46:46;12.40;;;10.00;;
1765;SDS011;880;52.452;8.656;2022-10-17T12:49:21;11.60;;;10.60;;
1765;SDS011;880;52.452;8.656;2022-10-17T12:52:05;12.03;;;11.03;;
1765;SDS011;880;52.452;8.656;2022-10-17T12:57:53;11.60;;;10.70;;
1765;SDS011;880;52.452;8.656;2022-10-17T13:03:44;13.38;;;12.18;;
1765;SDS011;880;52.452;8.656;2022-10-17T13:06:28;13.53;;;11.80;;
1765;SDS011;880;52.452;8.656;2022-10-17T13:09:13;14.17;;;12.73;;
1765;SDS011;880;52.452;8.656;2022-10-17T13:11:41;12.07;;;11.13;;
1765;SDS011;880;52.452;8.656;2022-10-17T13:14:12;12.13;;;11.23;;
1765;SDS011;880;52.452;8.656;2022-10-17T13:16:50;13.80;;;12.50;;
1765;SDS011;880;52.452;8.656;2022-10-17T13:19:39;13.77;;;12.57;;
1765;SDS011;880;52.452;8.656;2022-10-17T13:25:08;12.47;;;11.40;;
1765;SDS011;880;52.452;8.656;2022-10-17T13:27:46;14.30;;;13.20;;
1765;SDS011;880;52.452;8.656;2022-10-17T13:32:58;11.47;;;10.40;;
1765;SDS011;880;52.452;8.656;2022-10-17T13:35:33;12.50;;;11.50;;
1765;SDS011;880;52.452;8.656;2022-10-17T13:38:25;12.23;;;11.30;;
1765;SDS011;880;52.452;8.656;2022-10-17T13:40:54;12.70;;;11.37;;
1765;SDS011;880;52.452;8.656;2022-10-17T13:43:36;11.83;;;10.73;;
1765;SDS011;880;52.452;8.656;2022-10-17T13:46:04;10.27;;;9.30;;
1765;SDS011;880;52.452;8.656;2022-10-17T13:48:52;10.77;;;9.77;;
1765;SDS011;880;52.452;8.656;2022-10-17T13:51:19;10.93;;;9.83;;
1765;SDS011;880;52.452;8.656;2022-10-17T13:53:46;11.50;;;10.50;;
1765;SDS011;880;52.452;8.656;2022-10-17T13:56:24;11.23;;;10.33;;
1765;SDS011;880;52.452;8.656;2022-10-17T13:58:59;10.17;;;9.23;;
1765;SDS011;880;52.452;8.656;2022-10-17T14:01:40;11.30;;;10.17;;
1765;SDS011;880;52.452;8.656;2022-10-17T14:04:08;10.47;;;9.40;;
1765;SDS011;880;52.452;8.656;2022-10-17T14:06:45;12.37;;;10.80;;
1765;SDS011;880;52.452;8.656;2022-10-17T14:09:21;10.87;;;9.97;;
1765;SDS011;880;52.452;8.656;2022-10-17T14:12:10;11.77;;;10.60;;
1765;SDS011;880;52.452;8.656;2022-10-17T14:14:38;10.93;;;10.00;;
1765;SDS011;880;52.452;8.656;2022-10-17T14:17:33;10.90;;;10.00;;
1765;SDS011;880;52.452;8.656;2022-10-17T14:20:02;11.73;;;10.77;;
1765;SDS011;880;52.452;8.656;2022-10-17T14:22:50;12.17;;;10.90;;
1765;SDS011;880;52.452;8.656;2022-10-17T14:25:38;11.83;;;10.80;;
1765;SDS011;880;52.452;8.656;2022-10-17T14:30:37;12.13;;;11.20;;
1765;SDS011;880;52.452;8.656;2022-10-17T14:33:24;11.00;;;10.00;;
1765;SDS011;880;52.452;8.656;2022-10-17T14:35:56;13.77;;;10.37;;
1765;SDS011;880;52.452;8.656;2022-10-17T14:38:27;10.27;;;9.33;;
1765;SDS011;880;52.452;8.656;2022-10-17T14:41:00;11.23;;;10.23;;
1765;SDS011;880;52.452;8.656;2022-10-17T14:43:53;12.93;;;11.53;;
1765;SDS011;880;52.452;8.656;2022-10-17T14:46:25;11.40;;;10.40;;
1765;SDS011;880;52.452;8.656;2022-10-17T14:49:36;11.50;;;10.50;;
1765;SDS011;880;52.452;8.656;2022-10-17T14:54:44;13.63;;;10.77;;
1765;SDS011;880;52.452;8.656;2022-10-17T14:57:18;10.17;;;9.30;;
1765;SDS011;880;52.452;8.656;2022-10-17T14:59:57;11.10;;;10.00;;
1765;SDS011;880;52.452;8.656;2022-10-17T15:02:24;10.67;;;9.60;;
1765;SDS011;880;52.452;8.656;2022-10-17T15:04:55;10.13;;;9.43;;
1765;SDS011;880;52.452;8.656;2022-10-17T15:07:22;11.03;;;10.03;;
1765;SDS011;880;52.452;8.656;2022-10-17T15:09:50;11.97;;;9.70;;
1765;SDS011;880;52.452;8.656;2022-10-17T15:12:23;10.70;;;9.60;;
1765;SDS011;880;52.452;8.656;2022-10-17T15:14:58;10.57;;;9.57;;
1765;SDS011;880;52.452;8.656;2022-10-17T15:17:29;10.33;;;9.43;;
1765;SDS011;880;52.452;8.656;2022-10-17T15:19:57;11.57;;;10.53;;
1765;SDS011;880;52.452;8.656;2022-10-17T15:22:30;11.33;;;10.23;;
1765;SDS011;880;52.452;8.656;2022-10-17T15:25:01;12.23;;;10.00;;
1765;SDS011;880;52.452;8.656;2022-10-17T15:27:29;11.43;;;10.43;;
1765;SDS011;880;52.452;8.656;2022-10-17T15:29:58;10.23;;;9.40;;
1765;SDS011;880;52.452;8.656;2022-10-17T15:32:25;10.23;;;9.17;;
1765;SDS011;880;52.452;8.656;2022-10-17T15:34:52;10.90;;;10.00;;
1765;SDS011;880;52.452;8.656;2022-10-17T15:37:21;10.03;;;9.13;;
1765;SDS011;880;52.452;8.656;2022-10-17T15:39:51;20.90;;;18.80;;
1765;SDS011;880;52.452;8.656;2022-10-17T15:42:27;17.13;;;15.63;;
1765;SDS011;880;52.452;8.656;2022-10-17T15:44:55;13.40;;;11.53;;
1765;SDS011;880;52.452;8.656;2022-10-17T15:49:51;11.27;;;10.20;;
1765;SDS011;880;52.452;8.656;2022-10-17T15:52:22;11.53;;;10.57;;
1765;SDS011;880;52.452;8.656;2022-10-17T15:54:50;11.50;;;10.53;;
1765;SDS011;880;52.452;8.656;2022-10-17T15:57:27;11.40;;;10.40;;
1765;SDS011;880;52.452;8.656;2022-10-17T15:59:59;12.07;;;10.87;;
1765;SDS011;880;52.452;8.656;2022-10-17T16:02:26;9.93;;;8.93;;
1765;SDS011;880;52.452;8.656;2022-10-17T16:04:53;9.40;;;8.50;;
1765;SDS011;880;52.452;8.656;2022-10-17T16:07:20;10.50;;;9.10;;
1765;SDS011;880;52.452;8.656;2022-10-17T16:09:48;11.23;;;10.17;;
1765;SDS011;880;52.452;8.656;2022-10-17T16:12:16;12.20;;;9.47;;
1765;SDS011;880;52.452;8.656;2022-10-17T16:14:48;11.20;;;9.93;;
1765;SDS011;880;52.452;8.656;2022-10-17T16:17:15;12.67;;;10.13;;
1765;SDS011;880;52.452;8.656;2022-10-17T16:19:42;11.50;;;9.67;;
1765;SDS011;880;52.452;8.656;2022-10-17T16:22:15;11.03;;;10.13;;
1765;SDS011;880;52.452;8.656;2022-10-17T16:24:49;12.63;;;9.90;;
1765;SDS011;880;52.452;8.656;2022-10-17T16:27:23;11.90;;;10.13;;
1765;SDS011;880;52.452;8.656;2022-10-17T16:29:51;13.30;;;11.90;;
1765;SDS011;880;52.452;8.656;2022-10-17T16:32:18;13.67;;;12.33;;
1765;SDS011;880;52.452;8.656;2022-10-17T16:34:45;14.50;;;13.20;;
1765;SDS011;880;52.452;8.656;2022-10-17T16:37:12;13.20;;;11.83;;
1765;SDS011;880;52.452;8.656;2022-10-17T16:39:39;14.43;;;11.10;;
1765;SDS011;880;52.452;8.656;2022-10-17T16:42:07;12.93;;;11.83;;
1765;SDS011;880;52.452;8.656;2022-10-17T16:44:34;16.20;;;11.50;;
1765;SDS011;880;52.452;8.656;2022-10-17T16:47:01;12.43;;;11.20;;
1765;SDS011;880;52.452;8.656;2022-10-17T16:49:28;14.17;;;12.50;;
1765;SDS011;880;52.452;8.656;2022-10-17T16:51:55;12.50;;;11.40;;
1765;SDS011;880;52.452;8.656;2022-10-17T16:54:22;13.30;;;10.60;;
1765;SDS011;880;52.452;8.656;2022-10-17T16:56:49;11.40;;;10.40;;
1765;SDS011;880;52.452;8.656;2022-10-17T16:59:16;13.80;;;11.40;;
1765;SDS011;880;52.452;8.656;2022-10-17T17:01:43;12.07;;;10.10;;
1765;SDS011;880;52.452;8.656;2022-10-17T17:04:10;12.27;;;11.07;;
1765;SDS011;880;52.452;8.656;2022-10-17T17:06:38;10.43;;;9.57;;
1765;SDS011;880;52.452;8.656;2022-10-17T17:09:05;11.73;;;10.63;;
1765;SDS011;880;52.452;8.656;2022-10-17T17:11:35;11.70;;;10.50;;
1765;SDS011;880;52.452;8.656;2022-10-17T17:14:21;10.90;;;9.90;;
1765;SDS011;880;52.452;8.656;2022-10-17T17:16:48;10.73;;;9.57;;
1765;SDS011;880;52.452;8.656;2022-10-17T17:19:15;12.90;;;11.70;;
1765;SDS011;880;52.452;8.656;2022-10-17T17:21:42;14.80;;;13.50;;
1765;SDS011;880;52.452;8.656;2022-10-17T17:24:16;14.97;;;12.53;;
1765;SDS011;880;52.452;8.656;2022-10-17T17:26:52;13.57;;;12.33;;
1765;SDS011;880;52.452;8.656;2022-10-17T17:29:25;12.07;;;11.07;;
1765;SDS011;880;52.452;8.656;2022-10-17T17:31:55;11.40;;;10.40;;
1765;SDS011;880;52.452;8.656;2022-10-17T17:34:34;12.50;;;10.37;;
1765;SDS011;880;52.452;8.656;2022-10-17T17:37:02;11.57;;;10.57;;
1765;SDS011;880;52.452;8.656;2022-10-17T17:39:29;11.60;;;10.60;;
1765;SDS011;880;52.452;8.656;2022-10-17T17:41:56;11.87;;;10.50;;
1765;SDS011;880;52.452;8.656;2022-10-17T17:44:23;12.83;;;10.27;;
1765;SDS011;880;52.452;8.656;2022-10-17T17:46:51;11.60;;;10.50;;
1765;SDS011;880;52.452;8.656;2022-10-17T17:49:18;11.13;;;10.23;;
1765;SDS011;880;52.452;8.656;2022-10-17T17:51:45;11.53;;;10.47;;
1765;SDS011;880;52.452;8.656;2022-10-17T17:54:16;15.97;;;13.73;;
1765;SDS011;880;52.452;8.656;2022-10-17T17:56:49;14.90;;;13.33;;
1765;SDS011;880;52.452;8.656;2022-10-17T17:59:16;14.53;;;13.23;;
1765;SDS011;880;52.452;8.656;2022-10-17T18:01:43;29.87;;;27.30;;
1765;SDS011;880;52.452;8.656;2022-10-17T18:04:10;21.63;;;19.50;;
1765;SDS011;880;52.452;8.656;2022-10-17T18:06:37;14.07;;;12.70;;